Evington, Virginia
Current Conditions -  °F | °C
As of 2:54 PM on Friday 28 Nov 2014 (Local Time) from KLYH Reporting Station
Clear Clear  
Wind Chill: 32°   Ceiling: Unl
Heat Index: 37°   Visibility: 10mi
Dew Point: 17°   Wind: 7mph
Humidity: 44%   Direction: 270°W
Pressure: 30.27"   Gusts: NA
Location:  37.23°N, 79.29°W
Report Text: KLYH 281954Z 27006KT 10SM CLR 03/M08 A3027 RMK AO2 SLP257 T00281083 $
Loading
Personal Weather Stations






























Interactive Weather Map New forecast layout! Learn more

10-Day Weather Forecast

Advertisements
Track Severe Weather on mobile